Aquasco, MD

4:08 PM EDT on August 22, 2014 (GMT -0400)
Hidden Valley | Change Station
CLOSE
Current Station
Personal Weather Station
Location: Waldorf, MD
Elevation: 174 ft
Nearby Weather Stations

Elev 174 ft 38.56 °N, 76.79 °W | Updated 3 minutes ago

Mostly Cloudy
Mostly Cloudy
79.1 °F
Feels Like 83 °F
N
0.0
Wind Variable Wind from NNE
Gusts 1.0 mph

Today
High -- | Low -- °F
--% Chance of Precip.
Yesterday
High -- | Low -- °F
Precip. -- in
6:27 AM 7:51 PM
Waning Crescent, 7% visible
Pressure 29.99 in
Visibility 10.0 miles
Clouds Scattered Clouds 1700 ft
Scattered Clouds 2400 ft
Mostly Cloudy 11000 ft
Heat Index 83 °F
Dew Point 73 °F
Humidity 82%
Rainfall 0.00 in
Snow Depth Not available.
UV 3 out of 12
Pollen 8.60 out of 12
Air Quality Not available.
Flu Activity Not available.
METAR KADW 221958Z AUTO 07007KT 10SM SCT017 SCT024 BKN110 25/22 A2997 RMK AO2 RAB1914E1924DZB1910E1927 SLP153 P0000 T02490224 $

More Conditions Fewer Conditions

Pressure 29.99 in
Visibility 10.0 miles
Clouds Scattered Clouds 1700 ft
Scattered Clouds 2400 ft
Mostly Cloudy 11000 ft
Heat Index 83 °F
Dew Point 73 °F
Humidity 82%
Rainfall 0.00 in
Snow Depth Not available.
UV 3 out of 12
Pollen 8.60 out of 12
Air Quality Not available.
Flu Activity Not available.
METAR KADW 221958Z AUTO 07007KT 10SM SCT017 SCT024 BKN110 25/22 A2997 RMK AO2 RAB1914E1924DZB1910E1927 SLP153 P0000 T02490224 $

More Conditions Fewer Conditions

10-Day Weather Forecast

Almanac

Astronomy

Aug. 22, 2014 Rise Set
Actual Time 6:27 AM EDT 7:51 PM EDT
Civil Twilight 5:59 AM EDT 8:19 PM EDT
Nautical Twilight 5:26 AM EDT 8:52 PM EDT
Astronomical Twilight 4:50 AM EDT 9:27 PM EDT
Moon 3:48 AM EDT 5:58 PM EDT
Length of Visible Light 14h 19m
Length of Day
13h 24m
Tomorrow will be 2m 18s shorter.
Waning Crescent, 7% of the Moon is Illuminated
Today
Waning Crescent
Aug 25
New
Sep 2
First Quarter
Sep 8
Full
Sep 15
Last Quarter

Today's Extremes

State Highs State Lows

Community

WunderPhotos

Upload Photos

1,746,239 photos uploaded!

Nearby

Snow Depth

Station Depth Elevation
No new snow has been reported.

Earthquake Activity

City Distance Mag. Time & Date
No recent earthquake activity has been reported nearby.
Minimum magnitude displayed is 2.5.

Coastal Water Temperatures

Place Temperature
Solomons Island, MD 80.1 °F
Cambridge, MD 79.0 °F

Nearby Weather Stations